createdAt,value
2019-06-10T00:01:43.551Z,5.97
2019-06-10T00:04:13.859Z,5.83
2019-06-10T00:06:44.335Z,6.17
2019-06-10T00:09:14.617Z,5.40
2019-06-10T00:11:45.335Z,11.85
2019-06-10T00:14:15.803Z,4.03
2019-06-10T00:16:46.244Z,4.90
2019-06-10T00:19:16.572Z,6.90
2019-06-10T00:21:50.716Z,9.03
2019-06-10T00:24:21.129Z,6.62
2019-06-10T00:26:53.014Z,9.28
2019-06-10T00:29:23.687Z,4.47
2019-06-10T00:31:54.082Z,5.95
2019-06-10T00:34:24.455Z,7.15
2019-06-10T00:36:54.827Z,4.90
2019-06-10T00:39:25.169Z,4.55
2019-06-10T00:41:55.601Z,3.95
2019-06-10T00:44:26.032Z,7.53
2019-06-10T00:46:56.277Z,7.17
2019-06-10T00:49:26.664Z,11.48
2019-06-10T00:51:56.967Z,9.20
2019-06-10T00:54:27.335Z,5.15
2019-06-10T00:56:57.806Z,4.25
2019-06-10T00:59:28.267Z,4.03
2019-06-10T01:02:01.237Z,6.12
2019-06-10T01:04:31.916Z,5.87
2019-06-10T01:07:02.535Z,6.55
2019-06-10T01:09:32.944Z,7.50
2019-06-10T01:12:03.249Z,5.47
2019-06-10T01:14:33.921Z,3.92
2019-06-10T01:17:05.426Z,5.58
2019-06-10T01:19:36.004Z,8.00
2019-06-10T01:22:06.361Z,5.20
2019-06-10T01:24:36.736Z,4.92
2019-06-10T01:27:07.542Z,6.97
2019-06-10T01:29:37.969Z,4.45
2019-06-10T01:32:09.751Z,7.50
2019-06-10T01:34:41.676Z,6.80
2019-06-10T01:37:14.349Z,4.62
2019-06-10T01:39:44.121Z,5.37
2019-06-10T01:42:15.867Z,4.53
2019-06-10T01:44:46.566Z,11.63
2019-06-10T01:47:17.556Z,3.50
2019-06-10T01:49:48.100Z,4.30
2019-06-10T01:52:21.193Z,5.55
2019-06-10T01:54:52.522Z,6.40
2019-06-10T01:57:22.908Z,3.87
2019-06-10T01:59:53.348Z,5.85
2019-06-10T02:02:25.055Z,3.92
2019-06-10T02:04:55.469Z,4.28
2019-06-10T02:07:25.833Z,7.45
2019-06-10T02:09:56.215Z,10.70
2019-06-10T02:12:26.679Z,7.05
2019-06-10T02:14:56.966Z,5.95
2019-06-10T02:17:27.311Z,9.30
2019-06-10T02:19:57.718Z,8.23
2019-06-10T02:22:28.060Z,5.78
2019-06-10T02:24:58.492Z,4.45
2019-06-10T02:27:28.811Z,6.70
2019-06-10T02:30:01.556Z,5.45
2019-06-10T02:32:37.148Z,11.20
2019-06-10T02:35:13.129Z,6.62
2019-06-10T02:37:38.060Z,13.72
2019-06-10T02:40:08.132Z,5.85
2019-06-10T02:42:43.690Z,7.47
2019-06-10T02:45:18.322Z,10.15
2019-06-10T02:47:46.179Z,7.67
2019-06-10T02:50:23.294Z,7.90
2019-06-10T02:52:53.063Z,7.05
2019-06-10T02:55:30.282Z,9.33
2019-06-10T02:57:55.683Z,6.00
2019-06-10T03:00:37.124Z,4.45
2019-06-10T03:02:58.216Z,8.45
2019-06-10T03:05:39.315Z,4.65
2019-06-10T03:08:03.692Z,11.73
2019-06-10T03:10:36.775Z,8.25
2019-06-10T03:13:04.711Z,16.12
2019-06-10T03:15:36.945Z,4.50
2019-06-10T03:18:07.263Z,14.03
2019-06-10T03:20:38.698Z,4.30
2019-06-10T03:23:09.031Z,5.80
2019-06-10T03:25:39.410Z,3.35
2019-06-10T03:28:11.973Z,6.12
2019-06-10T03:30:53.319Z,3.95
2019-06-10T03:33:13.874Z,8.28
2019-06-10T03:35:44.502Z,10.43
2019-06-10T03:38:14.787Z,8.30
2019-06-10T03:40:46.451Z,6.05
2019-06-10T03:43:16.847Z,7.35
2019-06-10T03:45:47.299Z,5.35
2019-06-10T03:48:19.102Z,4.08
2019-06-10T03:50:49.427Z,4.30
2019-06-10T03:53:19.755Z,5.58
2019-06-10T03:55:52.531Z,3.90
2019-06-10T03:58:24.641Z,9.38
2019-06-10T04:00:54.039Z,4.30
2019-06-10T04:03:27.481Z,5.55
2019-06-10T04:05:56.474Z,7.53
2019-06-10T04:08:28.015Z,3.95
2019-06-10T04:10:58.363Z,6.97
2019-06-10T04:13:28.725Z,4.50
2019-06-10T04:15:59.111Z,6.35
2019-06-10T04:18:29.539Z,5.95
2019-06-10T04:21:02.306Z,4.37
2019-06-10T04:23:33.450Z,4.60
2019-06-10T04:26:04.009Z,3.62
2019-06-10T04:28:34.337Z,4.03
2019-06-10T04:31:04.798Z,4.50
2019-06-10T04:33:35.620Z,3.72
2019-06-10T04:36:07.007Z,6.22
2019-06-10T04:38:37.335Z,7.58
2019-06-10T04:41:07.777Z,5.40
2019-06-10T04:43:43.083Z,5.85
2019-06-10T04:46:12.995Z,4.55
2019-06-10T04:48:43.401Z,4.85
2019-06-10T04:51:13.928Z,6.17
2019-06-10T04:53:44.354Z,3.58
2019-06-10T04:56:14.787Z,4.45
2019-06-10T04:58:45.159Z,4.22
2019-06-10T05:01:15.559Z,8.73
2019-06-10T05:03:45.940Z,9.18
2019-06-10T05:06:16.391Z,8.90
2019-06-10T05:08:47.635Z,10.93
2019-06-10T05:11:19.074Z,10.40
2019-06-10T05:13:49.510Z,8.15
2019-06-10T05:16:19.918Z,6.33
2019-06-10T05:18:54.082Z,5.03
2019-06-10T05:21:25.054Z,8.58
2019-06-10T05:23:54.200Z,7.37
2019-06-10T05:26:26.012Z,12.25
2019-06-10T05:28:56.496Z,8.48
2019-06-10T05:31:28.648Z,5.70
2019-06-10T05:33:58.888Z,6.92
2019-06-10T05:36:31.065Z,3.70
2019-06-10T05:39:02.714Z,7.83
2019-06-10T05:41:35.232Z,9.05
2019-06-10T05:44:05.749Z,11.20
2019-06-10T05:46:36.103Z,3.62
2019-06-10T05:49:06.507Z,8.43
2019-06-10T05:51:36.813Z,15.53
2019-06-10T05:54:07.053Z,5.22
2019-06-10T05:56:37.443Z,4.10
2019-06-10T05:59:07.843Z,6.95
2019-06-10T06:01:38.694Z,10.35
2019-06-10T06:04:09.299Z,4.55
2019-06-10T06:06:41.705Z,9.28
2019-06-10T06:09:12.961Z,9.70
2019-06-10T06:11:43.789Z,3.72
2019-06-10T06:14:14.157Z,4.95
2019-06-10T06:16:44.575Z,8.45
2019-06-10T06:19:16.824Z,8.13
2019-06-10T06:21:47.889Z,9.40
2019-06-10T06:24:18.414Z,10.13
2019-06-10T06:26:50.077Z,9.35
2019-06-10T06:29:22.232Z,6.37
2019-06-10T06:31:52.520Z,11.90
2019-06-10T06:34:22.877Z,3.87
2019-06-10T06:36:53.227Z,8.93
2019-06-10T06:39:24.300Z,8.83
2019-06-10T06:41:54.852Z,12.98
2019-06-10T06:44:25.230Z,9.08
2019-06-10T06:46:56.800Z,12.55
2019-06-10T06:49:27.852Z,7.25
2019-06-10T06:51:59.337Z,9.50
2019-06-10T06:54:30.503Z,5.28
2019-06-10T06:57:03.481Z,10.23
2019-06-10T06:59:34.253Z,10.32
2019-06-10T07:02:05.779Z,6.70
2019-06-10T07:04:37.453Z,15.93
2019-06-10T07:07:08.228Z,6.22
2019-06-10T07:09:40.622Z,13.50
2019-06-10T07:12:13.043Z,9.63
2019-06-10T07:14:45.957Z,7.53
2019-06-10T07:17:16.402Z,9.03
2019-06-10T07:19:46.809Z,3.62
2019-06-10T07:22:17.153Z,5.87
2019-06-10T07:24:47.885Z,8.58
2019-06-10T07:27:18.473Z,6.08
2019-06-10T07:29:49.153Z,5.25
2019-06-10T07:32:19.546Z,6.85
2019-06-10T07:34:52.312Z,19.35
2019-06-10T07:37:23.185Z,6.37
2019-06-10T07:39:54.002Z,8.35
2019-06-10T07:42:24.324Z,6.20
2019-06-10T07:44:54.732Z,5.53
2019-06-10T07:47:25.147Z,14.20
2019-06-10T07:49:56.744Z,9.78
2019-06-10T07:52:28.735Z,10.65
2019-06-10T07:54:59.134Z,6.42
2019-06-10T07:57:29.493Z,6.33
2019-06-10T07:59:59.902Z,4.45
2019-06-10T08:02:32.280Z,5.10
2019-06-10T08:05:03.693Z,3.80
2019-06-10T08:07:35.238Z,6.55
2019-06-10T08:10:06.455Z,11.05
2019-06-10T08:12:37.123Z,9.28
2019-06-10T08:15:09.303Z,10.82
2019-06-10T08:17:40.430Z,7.55
2019-06-10T08:20:13.527Z,10.68
2019-06-10T08:22:50.895Z,6.97
2019-06-10T08:25:16.017Z,5.97
2019-06-10T08:27:47.878Z,5.33
2019-06-10T08:30:23.941Z,7.47
2019-06-10T08:32:54.089Z,7.00
2019-06-10T08:35:37.953Z,2.75
2019-06-10T08:37:55.546Z,4.72
2019-06-10T08:40:25.887Z,7.40
2019-06-10T08:42:56.229Z,12.50
2019-06-10T08:45:26.566Z,5.67
2019-06-10T08:47:56.909Z,3.62
2019-06-10T08:50:27.276Z,5.67
2019-06-10T08:53:12.788Z,5.50
2019-06-10T08:55:29.656Z,7.05
2019-06-10T08:58:02.563Z,6.83
2019-06-10T09:00:33.722Z,6.53
2019-06-10T09:03:05.071Z,2.65
2019-06-10T09:05:35.445Z,4.95
2019-06-10T09:08:05.720Z,4.90
2019-06-10T09:10:36.076Z,6.03
2019-06-10T09:13:06.474Z,10.50
2019-06-10T09:15:36.862Z,7.53
2019-06-10T09:18:08.701Z,3.80
2019-06-10T09:20:39.386Z,4.55
2019-06-10T09:23:19.231Z,9.43
2019-06-10T09:25:47.670Z,5.15
2019-06-10T09:28:14.798Z,6.60
2019-06-10T09:30:50.463Z,6.90
2019-06-10T09:33:17.091Z,5.53
2019-06-10T09:35:50.348Z,6.35
2019-06-10T09:38:19.428Z,6.97
2019-06-10T09:41:01.391Z,5.78
2019-06-10T09:43:25.963Z,6.58
2019-06-10T09:45:56.913Z,12.78
2019-06-10T09:48:29.091Z,4.83
2019-06-10T09:50:59.504Z,13.48
2019-06-10T09:53:38.913Z,9.18
2019-06-10T09:56:04.139Z,10.53
2019-06-10T09:58:33.753Z,6.65
2019-06-10T10:01:04.810Z,7.78
2019-06-10T10:03:35.513Z,10.32
2019-06-10T10:06:14.544Z,11.85
2019-06-10T10:08:38.203Z,12.58
2019-06-10T10:11:08.630Z,8.63
2019-06-10T10:13:39.178Z,13.62
2019-06-10T10:16:10.063Z,9.75
2019-06-10T10:18:42.231Z,7.42
2019-06-10T10:21:13.086Z,9.23
2019-06-10T10:23:56.545Z,12.50
2019-06-10T10:26:15.692Z,10.90
2019-06-10T10:28:47.947Z,14.13
2019-06-10T10:31:18.074Z,8.93
2019-06-10T10:33:48.528Z,7.60
2019-06-10T10:36:19.042Z,8.38
2019-06-10T10:38:50.758Z,17.45
2019-06-10T10:41:23.982Z,15.80
2019-06-10T10:43:58.140Z,10.58
2019-06-10T10:46:25.509Z,12.18
2019-06-10T10:48:56.597Z,14.73
2019-06-10T10:51:28.381Z,9.60
2019-06-10T10:54:28.427Z,12.53
2019-06-10T10:56:30.724Z,12.05
2019-06-10T10:59:02.178Z,13.08
2019-06-10T11:01:33.358Z,8.15
2019-06-10T11:04:05.489Z,9.90
2019-06-10T11:06:35.838Z,13.00
2019-06-10T11:09:09.679Z,11.78
2019-06-10T11:11:44.009Z,14.43
2019-06-10T11:14:15.680Z,13.62
2019-06-10T11:16:47.173Z,8.73
2019-06-10T11:19:17.825Z,12.05
2019-06-10T11:21:49.447Z,11.22
2019-06-10T11:24:33.581Z,10.08
2019-06-10T11:26:55.196Z,10.55
2019-06-10T11:29:24.048Z,19.80
2019-06-10T11:31:56.643Z,11.80
2019-06-10T11:34:26.538Z,10.53
2019-06-10T11:36:58.181Z,10.80
2019-06-10T11:39:28.868Z,7.90
2019-06-10T11:41:59.209Z,12.88
2019-06-10T11:44:30.072Z,11.12
2019-06-10T11:47:03.034Z,13.25
2019-06-10T11:49:32.604Z,13.40
2019-06-10T11:52:03.325Z,10.30
2019-06-10T11:54:47.835Z,11.18
2019-06-10T11:57:05.908Z,12.70
2019-06-10T11:59:36.306Z,16.95
2019-06-10T12:02:06.728Z,9.95
2019-06-10T12:04:37.108Z,14.03
2019-06-10T12:07:07.458Z,13.70
2019-06-10T12:09:38.027Z,9.18
2019-06-10T12:12:08.721Z,11.95
2019-06-10T12:14:39.288Z,10.45
2019-06-10T12:17:24.975Z,10.28
2019-06-10T12:19:43.356Z,14.05
2019-06-10T12:22:13.570Z,9.53
2019-06-10T12:24:44.145Z,9.33
2019-06-10T12:27:14.576Z,16.05
2019-06-10T12:29:45.024Z,12.20
2019-06-10T12:32:15.414Z,8.05
2019-06-10T12:34:46.386Z,15.28
2019-06-10T12:37:17.128Z,17.55
2019-06-10T12:39:47.488Z,13.18
2019-06-10T12:42:17.872Z,14.05
2019-06-10T12:44:48.514Z,15.72
2019-06-10T12:47:19.273Z,18.17
2019-06-10T12:49:51.999Z,14.20
2019-06-10T12:52:22.945Z,12.93
2019-06-10T12:54:53.486Z,16.07
2019-06-10T12:57:23.885Z,12.68
2019-06-10T12:59:54.260Z,13.85
2019-06-10T13:02:31.298Z,11.53
2019-06-10T13:04:59.506Z,12.45
2019-06-10T13:07:32.514Z,7.28
2019-06-10T13:10:04.122Z,10.15
2019-06-10T13:12:34.533Z,13.50
2019-06-10T13:15:08.443Z,15.25
2019-06-10T13:17:38.167Z,18.75
2019-06-10T13:20:09.623Z,16.00
2019-06-10T13:22:43.033Z,14.23
2019-06-10T13:25:13.480Z,11.43
2019-06-10T13:27:43.880Z,17.02
2019-06-10T13:30:14.896Z,9.93
2019-06-10T13:32:45.730Z,13.72
2019-06-10T13:35:16.506Z,11.38
2019-06-10T13:37:46.880Z,13.25
2019-06-10T13:40:17.594Z,12.55
2019-06-10T13:42:47.908Z,11.73
2019-06-10T13:45:18.597Z,14.58
2019-06-10T13:47:49.028Z,11.65
2019-06-10T13:50:22.111Z,11.25
2019-06-10T13:52:53.466Z,11.50
2019-06-10T13:55:23.906Z,10.10
2019-06-10T13:57:54.204Z,14.83
2019-06-10T14:00:40.375Z,10.00
2019-06-10T14:02:56.631Z,11.97
2019-06-10T14:05:26.984Z,13.38
2019-06-10T14:07:57.288Z,15.25
2019-06-10T14:10:27.732Z,12.53
2019-06-10T14:12:58.116Z,10.98
2019-06-10T14:15:29.116Z,10.60
2019-06-10T14:17:59.477Z,13.98
2019-06-10T14:20:32.358Z,9.53
2019-06-10T14:23:02.633Z,11.78
2019-06-10T14:25:33.914Z,12.33
2019-06-10T14:28:07.699Z,12.73
2019-06-10T14:30:36.315Z,16.87
2019-06-10T14:33:07.440Z,11.45
2019-06-10T14:35:37.931Z,15.78
2019-06-10T14:38:08.313Z,12.10
2019-06-10T14:40:38.672Z,12.78
2019-06-10T14:43:10.274Z,19.48
2019-06-10T14:45:42.405Z,14.18
2019-06-10T14:48:15.638Z,11.43
2019-06-10T14:50:44.849Z,12.23
2019-06-10T14:53:16.788Z,19.52
2019-06-10T14:55:47.132Z,12.00
2019-06-10T14:58:19.416Z,12.25
2019-06-10T15:00:53.773Z,11.90
2019-06-10T15:03:22.992Z,14.93
2019-06-10T15:05:53.443Z,11.38
2019-06-10T15:08:23.813Z,15.43
2019-06-10T15:10:54.211Z,14.18
2019-06-10T15:13:24.543Z,18.75
2019-06-10T15:15:56.175Z,13.28
2019-06-10T15:18:26.452Z,14.18
2019-06-10T15:20:57.000Z,13.80
2019-06-10T15:23:27.450Z,16.15
2019-06-10T15:25:58.833Z,11.60
2019-06-10T15:28:29.227Z,10.90
2019-06-10T15:30:59.605Z,13.03
2019-06-10T15:33:32.403Z,13.85
2019-06-10T15:36:02.295Z,11.38
2019-06-10T15:38:33.240Z,17.92
2019-06-10T15:41:03.659Z,18.82
2019-06-10T15:43:33.990Z,9.90
2019-06-10T15:46:04.311Z,10.78
2019-06-10T15:48:34.700Z,9.18
2019-06-10T15:51:05.118Z,13.72
2019-06-10T15:53:35.483Z,11.03
2019-06-10T15:56:14.455Z,16.12
2019-06-10T15:58:37.907Z,10.30
2019-06-10T16:01:08.300Z,10.65
2019-06-10T16:03:38.723Z,11.20
2019-06-10T16:06:09.117Z,11.50
2019-06-10T16:08:39.412Z,10.23
2019-06-10T16:11:09.794Z,12.40
2019-06-10T16:13:42.854Z,11.12
2019-06-10T16:16:12.799Z,11.65
2019-06-10T16:18:43.476Z,20.48
2019-06-10T16:21:15.614Z,15.00
2019-06-10T16:23:46.205Z,8.83
2019-06-10T16:26:17.967Z,11.35
2019-06-10T16:28:48.694Z,13.62
2019-06-10T16:31:20.357Z,12.33
2019-06-10T16:33:52.724Z,11.50
2019-06-10T16:36:25.781Z,12.70
2019-06-10T16:38:55.016Z,11.03
2019-06-10T16:41:27.797Z,15.10
2019-06-10T16:43:57.328Z,13.13
2019-06-10T16:46:28.956Z,13.95
2019-06-10T16:48:59.415Z,15.38
2019-06-10T16:51:29.963Z,17.70
2019-06-10T16:54:02.293Z,15.20
2019-06-10T16:56:33.590Z,12.30
2019-06-10T16:59:04.325Z,15.95
2019-06-10T17:01:34.636Z,10.38
2019-06-10T17:04:06.234Z,15.23
2019-06-10T17:06:36.637Z,16.50
2019-06-10T17:09:08.066Z,15.35
2019-06-10T17:11:38.431Z,12.10
2019-06-10T17:14:13.530Z,13.65
2019-06-10T17:16:43.931Z,10.53
2019-06-10T17:19:14.435Z,16.82
2019-06-10T17:21:44.945Z,11.85
2019-06-10T17:24:15.308Z,13.40
2019-06-10T17:26:45.683Z,10.10
2019-06-10T17:29:16.256Z,14.60
2019-06-10T17:31:46.599Z,11.90
2019-06-10T17:34:20.543Z,15.40
2019-06-10T17:36:51.067Z,14.55
2019-06-10T17:39:23.823Z,17.62
2019-06-10T17:41:53.459Z,11.63
2019-06-10T17:44:27.372Z,10.95
2019-06-10T17:46:55.776Z,15.68
2019-06-10T17:49:27.409Z,10.63
2019-06-10T17:51:58.150Z,11.85
2019-06-10T17:54:28.456Z,12.45
2019-06-10T17:56:58.832Z,12.13
2019-06-10T17:59:29.243Z,15.90
2019-06-10T18:01:59.613Z,12.50
2019-06-10T18:04:29.960Z,12.20
2019-06-10T18:07:02.298Z,17.30
2019-06-10T18:09:35.437Z,10.55
2019-06-10T18:12:04.248Z,12.13
2019-06-10T18:14:36.325Z,13.22
2019-06-10T18:17:07.185Z,12.23
2019-06-10T18:19:37.632Z,16.42
2019-06-10T18:22:08.045Z,13.72
2019-06-10T18:24:38.607Z,8.58
2019-06-10T18:27:08.919Z,15.05
2019-06-10T18:29:39.330Z,14.50
2019-06-10T18:32:12.249Z,11.55
2019-06-10T18:34:42.634Z,13.62
2019-06-10T18:37:13.187Z,16.37
2019-06-10T18:39:43.572Z,15.03
2019-06-10T18:42:13.957Z,12.37
2019-06-10T18:44:44.352Z,10.38
2019-06-10T18:47:14.789Z,16.25
2019-06-10T18:49:45.277Z,10.80
2019-06-10T18:52:15.671Z,13.75
2019-06-10T18:54:46.159Z,13.58
2019-06-10T18:57:16.529Z,9.68
2019-06-10T18:59:46.898Z,12.40
2019-06-10T19:02:17.979Z,11.97
2019-06-10T19:04:48.472Z,15.48
2019-06-10T19:07:18.812Z,10.43
2019-06-10T19:09:49.243Z,14.90
2019-06-10T19:12:22.420Z,9.28
2019-06-10T19:14:52.468Z,14.47
2019-06-10T19:17:23.294Z,14.35
2019-06-10T19:19:53.695Z,15.05
2019-06-10T19:22:24.054Z,10.48
2019-06-10T19:24:54.432Z,14.03
2019-06-10T19:27:24.847Z,13.00
2019-06-10T19:29:56.259Z,11.35
2019-06-10T19:32:27.534Z,10.55
2019-06-10T19:34:57.923Z,12.23
2019-06-10T19:37:28.317Z,12.93
2019-06-10T19:39:58.695Z,15.20
2019-06-10T19:42:29.143Z,19.00
2019-06-10T19:44:59.795Z,10.80
2019-06-10T19:47:32.641Z,14.13
2019-06-10T19:50:02.984Z,10.55
2019-06-10T19:52:35.227Z,19.45
2019-06-10T19:55:07.302Z,17.65
2019-06-10T19:57:37.707Z,15.08
2019-06-10T20:00:12.525Z,15.55
2019-06-10T20:02:44.507Z,15.05
2019-06-10T20:05:14.694Z,20.27
2019-06-10T20:07:50.278Z,13.58
2019-06-10T20:10:17.617Z,21.77
2019-06-10T20:12:48.001Z,11.35
2019-06-10T20:15:22.986Z,13.25
2019-06-10T20:17:54.437Z,13.35
2019-06-10T20:20:24.881Z,11.40
2019-06-10T20:22:57.534Z,11.57
2019-06-10T20:25:27.629Z,12.07
2019-06-10T20:30:38.813Z,14.18
2019-06-10T20:33:09.408Z,13.35
2019-06-10T20:35:40.757Z,16.90
2019-06-10T20:38:13.282Z,15.40
2019-06-10T20:40:45.656Z,12.33
2019-06-10T20:43:15.877Z,12.55
2019-06-10T20:45:47.918Z,14.78
2019-06-10T20:48:18.263Z,19.05
2019-06-10T20:50:50.088Z,23.45
2019-06-10T20:53:20.735Z,22.90
2019-06-10T20:55:57.355Z,20.50
2019-06-10T20:58:23.407Z,18.73
2019-06-10T21:00:56.975Z,13.45
2019-06-10T21:03:25.837Z,17.77
2019-06-10T21:05:59.611Z,11.85
2019-06-10T21:08:33.187Z,16.25
2019-06-10T21:11:03.548Z,13.65
2019-06-10T21:13:33.951Z,18.40
2019-06-10T21:16:04.303Z,16.45
2019-06-10T21:18:34.718Z,15.80
2019-06-10T21:21:05.083Z,18.52
2019-06-10T21:23:35.457Z,11.50
2019-06-10T21:26:05.845Z,14.23
2019-06-10T21:28:36.285Z,14.95
2019-06-10T21:31:06.633Z,15.55
2019-06-10T21:33:37.033Z,18.25
2019-06-10T21:36:07.371Z,14.87
2019-06-10T21:38:37.783Z,18.52
2019-06-10T21:41:08.171Z,22.50
2019-06-10T21:43:41.526Z,28.47
2019-06-10T21:46:13.030Z,18.25
2019-06-10T21:48:44.467Z,18.80
2019-06-10T21:51:14.859Z,14.68
2019-06-10T21:53:46.517Z,23.27
2019-06-10T21:56:17.181Z,16.80
2019-06-10T21:58:48.893Z,12.45
2019-06-10T22:01:19.469Z,15.95
2019-06-10T22:03:57.546Z,13.38
2019-06-10T22:06:22.837Z,14.98
2019-06-10T22:08:56.363Z,17.98
2019-06-10T22:11:25.736Z,17.20
2019-06-10T22:13:56.424Z,13.95
2019-06-10T22:16:26.964Z,14.95
2019-06-10T22:18:57.359Z,15.43
2019-06-10T22:21:27.728Z,18.70
2019-06-10T22:23:58.147Z,13.95
2019-06-10T22:26:28.493Z,18.23
2019-06-10T22:28:58.867Z,16.87
2019-06-10T22:31:29.357Z,18.62
2019-06-10T22:33:59.749Z,29.15
2019-06-10T22:36:32.558Z,18.50
2019-06-10T22:39:03.219Z,18.85
2019-06-10T22:41:35.638Z,19.32
2019-06-10T22:44:06.103Z,15.18
2019-06-10T22:46:36.431Z,14.47
2019-06-10T22:49:06.870Z,18.70
2019-06-10T22:51:37.165Z,18.15
2019-06-10T22:54:07.509Z,13.80
2019-06-10T22:56:37.882Z,20.02
2019-06-10T22:59:10.358Z,16.23
2019-06-10T23:01:42.381Z,11.40
2019-06-10T23:04:13.445Z,16.32
2019-06-10T23:06:44.327Z,13.15
2019-06-10T23:09:14.755Z,20.52
2019-06-10T23:11:45.145Z,13.88
2019-06-10T23:14:15.564Z,17.12
2019-06-10T23:16:47.115Z,14.38
2019-06-10T23:19:17.483Z,15.38
2019-06-10T23:21:49.135Z,15.75
2019-06-10T23:24:19.563Z,16.37
2019-06-10T23:26:49.951Z,15.53
2019-06-10T23:29:22.644Z,16.27
2019-06-10T23:31:58.947Z,14.60
2019-06-10T23:34:24.315Z,17.15
2019-06-10T23:36:56.640Z,18.25
2019-06-10T23:39:26.823Z,19.70
2019-06-10T23:41:58.321Z,14.25
2019-06-10T23:44:29.166Z,14.68
2019-06-10T23:47:02.119Z,16.75
2019-06-10T23:49:32.325Z,17.23
2019-06-10T23:52:05.009Z,16.73
2019-06-10T23:54:34.812Z,14.50
2019-06-10T23:57:06.403Z,15.68
2019-06-10T23:59:37.263Z,16.05
